sensor_id;sensor_type;location;lat;lon;timestamp;P1;durP1;ratioP1;P2;durP2;ratioP2
21170;SDS011;10743;52.160;20.910;2024-01-15T00:00:29;18.57;;;6.30;;
21170;SDS011;10743;52.160;20.910;2024-01-15T00:02:56;18.87;;;6.97;;
21170;SDS011;10743;52.160;20.910;2024-01-15T00:05:24;14.37;;;6.47;;
21170;SDS011;10743;52.160;20.910;2024-01-15T00:07:51;15.13;;;7.13;;
21170;SDS011;10743;52.160;20.910;2024-01-15T00:10:18;15.97;;;6.87;;
21170;SDS011;10743;52.160;20.910;2024-01-15T00:12:45;17.17;;;6.67;;
21170;SDS011;10743;52.160;20.910;2024-01-15T00:15:12;22.53;;;6.77;;
21170;SDS011;10743;52.160;20.910;2024-01-15T00:17:39;11.67;;;5.67;;
21170;SDS011;10743;52.160;20.910;2024-01-15T00:20:06;17.13;;;6.87;;
21170;SDS011;10743;52.160;20.910;2024-01-15T00:22:34;12.43;;;5.90;;
21170;SDS011;10743;52.160;20.910;2024-01-15T00:25:04;20.60;;;7.00;;
21170;SDS011;10743;52.160;20.910;2024-01-15T00:27:31;11.90;;;6.23;;
21170;SDS011;10743;52.160;20.910;2024-01-15T00:29:58;14.77;;;6.90;;
21170;SDS011;10743;52.160;20.910;2024-01-15T00:32:25;12.43;;;6.70;;
21170;SDS011;10743;52.160;20.910;2024-01-15T00:34:52;18.47;;;7.27;;
21170;SDS011;10743;52.160;20.910;2024-01-15T00:37:19;17.70;;;6.60;;
21170;SDS011;10743;52.160;20.910;2024-01-15T00:39:46;13.63;;;6.43;;
21170;SDS011;10743;52.160;20.910;2024-01-15T00:42:14;16.07;;;6.73;;
21170;SDS011;10743;52.160;20.910;2024-01-15T00:44:41;17.07;;;7.20;;
21170;SDS011;10743;52.160;20.910;2024-01-15T00:47:09;12.93;;;6.83;;
21170;SDS011;10743;52.160;20.910;2024-01-15T00:49:36;12.63;;;6.13;;
21170;SDS011;10743;52.160;20.910;2024-01-15T00:52:03;14.70;;;7.03;;
21170;SDS011;10743;52.160;20.910;2024-01-15T00:54:30;14.87;;;7.30;;
21170;SDS011;10743;52.160;20.910;2024-01-15T00:56:57;12.23;;;6.00;;
21170;SDS011;10743;52.160;20.910;2024-01-15T00:59:24;16.93;;;7.57;;
21170;SDS011;10743;52.160;20.910;2024-01-15T01:01:52;14.20;;;7.23;;
21170;SDS011;10743;52.160;20.910;2024-01-15T01:04:19;18.77;;;6.90;;
21170;SDS011;10743;52.160;20.910;2024-01-15T01:06:46;12.83;;;6.57;;
21170;SDS011;10743;52.160;20.910;2024-01-15T01:09:13;15.23;;;7.30;;
21170;SDS011;10743;52.160;20.910;2024-01-15T01:11:40;16.43;;;7.37;;
21170;SDS011;10743;52.160;20.910;2024-01-15T01:14:07;17.97;;;7.70;;
21170;SDS011;10743;52.160;20.910;2024-01-15T01:16:34;18.63;;;7.57;;
21170;SDS011;10743;52.160;20.910;2024-01-15T01:19:06;14.43;;;6.13;;
21170;SDS011;10743;52.160;20.910;2024-01-15T01:21:34;19.87;;;7.53;;
21170;SDS011;10743;52.160;20.910;2024-01-15T01:24:01;20.67;;;9.00;;
21170;SDS011;10743;52.160;20.910;2024-01-15T01:26:28;19.27;;;7.83;;
21170;SDS011;10743;52.160;20.910;2024-01-15T01:28:56;12.60;;;6.90;;
21170;SDS011;10743;52.160;20.910;2024-01-15T01:31:23;18.03;;;7.37;;
21170;SDS011;10743;52.160;20.910;2024-01-15T01:33:51;16.13;;;8.07;;
21170;SDS011;10743;52.160;20.910;2024-01-15T01:36:18;16.80;;;8.03;;
21170;SDS011;10743;52.160;20.910;2024-01-15T01:38:45;23.70;;;9.17;;
21170;SDS011;10743;52.160;20.910;2024-01-15T01:41:12;22.13;;;9.77;;
21170;SDS011;10743;52.160;20.910;2024-01-15T01:43:39;25.30;;;9.50;;
21170;SDS011;10743;52.160;20.910;2024-01-15T01:46:06;18.43;;;7.70;;
21170;SDS011;10743;52.160;20.910;2024-01-15T01:48:34;17.73;;;8.13;;
21170;SDS011;10743;52.160;20.910;2024-01-15T01:51:02;23.20;;;9.57;;
21170;SDS011;10743;52.160;20.910;2024-01-15T01:53:31;20.63;;;8.33;;
21170;SDS011;10743;52.160;20.910;2024-01-15T01:56:01;15.30;;;7.33;;
21170;SDS011;10743;52.160;20.910;2024-01-15T01:58:29;20.03;;;9.23;;
21170;SDS011;10743;52.160;20.910;2024-01-15T02:00:59;22.63;;;8.40;;
21170;SDS011;10743;52.160;20.910;2024-01-15T02:03:30;18.87;;;7.93;;
21170;SDS011;10743;52.160;20.910;2024-01-15T02:05:58;21.00;;;10.50;;
21170;SDS011;10743;52.160;20.910;2024-01-15T02:08:26;18.03;;;8.07;;
21170;SDS011;10743;52.160;20.910;2024-01-15T02:10:53;19.77;;;8.77;;
21170;SDS011;10743;52.160;20.910;2024-01-15T02:13:20;16.67;;;7.30;;
21170;SDS011;10743;52.160;20.910;2024-01-15T02:15:47;22.00;;;8.17;;
21170;SDS011;10743;52.160;20.910;2024-01-15T02:18:14;22.30;;;8.80;;
21170;SDS011;10743;52.160;20.910;2024-01-15T02:20:42;22.00;;;8.87;;
21170;SDS011;10743;52.160;20.910;2024-01-15T02:23:11;18.63;;;8.53;;
21170;SDS011;10743;52.160;20.910;2024-01-15T02:25:41;24.13;;;7.83;;
21170;SDS011;10743;52.160;20.910;2024-01-15T02:28:11;21.40;;;8.87;;
21170;SDS011;10743;52.160;20.910;2024-01-15T02:30:41;21.27;;;9.17;;
21170;SDS011;10743;52.160;20.910;2024-01-15T02:33:10;20.00;;;8.53;;
21170;SDS011;10743;52.160;20.910;2024-01-15T02:35:38;15.27;;;8.13;;
21170;SDS011;10743;52.160;20.910;2024-01-15T02:38:06;19.77;;;8.60;;
21170;SDS011;10743;52.160;20.910;2024-01-15T02:40:33;18.00;;;8.50;;
21170;SDS011;10743;52.160;20.910;2024-01-15T02:43:01;22.23;;;8.87;;
21170;SDS011;10743;52.160;20.910;2024-01-15T02:45:28;24.27;;;10.03;;
21170;SDS011;10743;52.160;20.910;2024-01-15T02:47:55;24.97;;;9.30;;
21170;SDS011;10743;52.160;20.910;2024-01-15T02:50:23;17.30;;;9.47;;
21170;SDS011;10743;52.160;20.910;2024-01-15T02:52:50;17.13;;;8.47;;
21170;SDS011;10743;52.160;20.910;2024-01-15T02:55:17;14.33;;;7.77;;
21170;SDS011;10743;52.160;20.910;2024-01-15T02:57:44;20.40;;;9.03;;
21170;SDS011;10743;52.160;20.910;2024-01-15T03:00:12;21.43;;;7.53;;
21170;SDS011;10743;52.160;20.910;2024-01-15T03:02:40;19.53;;;8.90;;
21170;SDS011;10743;52.160;20.910;2024-01-15T03:05:13;20.60;;;8.33;;
21170;SDS011;10743;52.160;20.910;2024-01-15T03:07:40;16.23;;;7.47;;
21170;SDS011;10743;52.160;20.910;2024-01-15T03:10:08;20.40;;;8.40;;
21170;SDS011;10743;52.160;20.910;2024-01-15T03:12:35;18.17;;;7.83;;
21170;SDS011;10743;52.160;20.910;2024-01-15T03:15:02;15.60;;;8.00;;
21170;SDS011;10743;52.160;20.910;2024-01-15T03:17:30;19.97;;;7.83;;
21170;SDS011;10743;52.160;20.910;2024-01-15T03:19:57;18.17;;;7.90;;
21170;SDS011;10743;52.160;20.910;2024-01-15T03:22:24;19.17;;;8.10;;
21170;SDS011;10743;52.160;20.910;2024-01-15T03:24:52;18.43;;;7.50;;
21170;SDS011;10743;52.160;20.910;2024-01-15T03:27:19;23.13;;;8.60;;
21170;SDS011;10743;52.160;20.910;2024-01-15T03:29:47;19.50;;;8.27;;
21170;SDS011;10743;52.160;20.910;2024-01-15T03:32:14;14.13;;;7.20;;
21170;SDS011;10743;52.160;20.910;2024-01-15T03:34:42;21.23;;;7.40;;
21170;SDS011;10743;52.160;20.910;2024-01-15T03:37:10;19.30;;;8.20;;
21170;SDS011;10743;52.160;20.910;2024-01-15T03:39:37;18.50;;;7.63;;
21170;SDS011;10743;52.160;20.910;2024-01-15T03:42:04;20.60;;;8.33;;
21170;SDS011;10743;52.160;20.910;2024-01-15T03:44:32;20.00;;;7.90;;
21170;SDS011;10743;52.160;20.910;2024-01-15T03:46:59;18.90;;;7.97;;
21170;SDS011;10743;52.160;20.910;2024-01-15T03:49:27;20.33;;;7.60;;
21170;SDS011;10743;52.160;20.910;2024-01-15T03:51:54;17.83;;;7.10;;
21170;SDS011;10743;52.160;20.910;2024-01-15T03:54:21;16.23;;;7.53;;
21170;SDS011;10743;52.160;20.910;2024-01-15T03:56:48;15.67;;;7.10;;
21170;SDS011;10743;52.160;20.910;2024-01-15T03:59:15;16.30;;;8.03;;
21170;SDS011;10743;52.160;20.910;2024-01-15T04:01:47;17.50;;;7.90;;
21170;SDS011;10743;52.160;20.910;2024-01-15T04:04:17;22.27;;;8.20;;
21170;SDS011;10743;52.160;20.910;2024-01-15T04:06:45;17.23;;;8.00;;
21170;SDS011;10743;52.160;20.910;2024-01-15T04:09:12;19.20;;;7.77;;
21170;SDS011;10743;52.160;20.910;2024-01-15T04:11:40;19.17;;;8.30;;
21170;SDS011;10743;52.160;20.910;2024-01-15T04:14:07;18.00;;;7.43;;
21170;SDS011;10743;52.160;20.910;2024-01-15T04:16:34;18.87;;;8.10;;
21170;SDS011;10743;52.160;20.910;2024-01-15T04:19:01;17.27;;;7.40;;
21170;SDS011;10743;52.160;20.910;2024-01-15T04:21:29;14.27;;;6.80;;
21170;SDS011;10743;52.160;20.910;2024-01-15T04:23:56;19.27;;;7.90;;
21170;SDS011;10743;52.160;20.910;2024-01-15T04:26:23;21.33;;;9.27;;
21170;SDS011;10743;52.160;20.910;2024-01-15T04:28:50;21.60;;;8.37;;
21170;SDS011;10743;52.160;20.910;2024-01-15T04:31:23;14.97;;;6.87;;
21170;SDS011;10743;52.160;20.910;2024-01-15T04:33:53;17.50;;;8.13;;
21170;SDS011;10743;52.160;20.910;2024-01-15T04:36:20;16.47;;;7.63;;
21170;SDS011;10743;52.160;20.910;2024-01-15T04:38:48;18.00;;;6.93;;
21170;SDS011;10743;52.160;20.910;2024-01-15T04:41:15;16.97;;;6.97;;
21170;SDS011;10743;52.160;20.910;2024-01-15T04:43:43;17.67;;;7.20;;
21170;SDS011;10743;52.160;20.910;2024-01-15T04:46:10;14.03;;;6.53;;
21170;SDS011;10743;52.160;20.910;2024-01-15T04:48:37;17.17;;;7.23;;
21170;SDS011;10743;52.160;20.910;2024-01-15T04:51:05;14.97;;;6.93;;
21170;SDS011;10743;52.160;20.910;2024-01-15T04:53:34;17.70;;;7.47;;
21170;SDS011;10743;52.160;20.910;2024-01-15T04:56:01;19.10;;;7.60;;
21170;SDS011;10743;52.160;20.910;2024-01-15T04:58:28;15.83;;;7.27;;
21170;SDS011;10743;52.160;20.910;2024-01-15T05:00:55;18.87;;;8.20;;
21170;SDS011;10743;52.160;20.910;2024-01-15T05:03:23;16.47;;;7.67;;
21170;SDS011;10743;52.160;20.910;2024-01-15T05:05:50;17.53;;;7.60;;
21170;SDS011;10743;52.160;20.910;2024-01-15T05:08:17;16.20;;;7.30;;
21170;SDS011;10743;52.160;20.910;2024-01-15T05:10:45;14.67;;;6.37;;
21170;SDS011;10743;52.160;20.910;2024-01-15T05:13:12;13.63;;;6.63;;
21170;SDS011;10743;52.160;20.910;2024-01-15T05:15:39;15.93;;;6.80;;
21170;SDS011;10743;52.160;20.910;2024-01-15T05:18:06;17.13;;;6.90;;
21170;SDS011;10743;52.160;20.910;2024-01-15T05:20:34;17.93;;;8.03;;
21170;SDS011;10743;52.160;20.910;2024-01-15T05:23:01;19.23;;;7.60;;
21170;SDS011;10743;52.160;20.910;2024-01-15T05:25:28;15.13;;;6.67;;
21170;SDS011;10743;52.160;20.910;2024-01-15T05:27:55;16.17;;;7.87;;
21170;SDS011;10743;52.160;20.910;2024-01-15T05:30:22;17.80;;;6.67;;
21170;SDS011;10743;52.160;20.910;2024-01-15T05:32:49;16.67;;;6.97;;
21170;SDS011;10743;52.160;20.910;2024-01-15T05:35:16;17.70;;;6.97;;
21170;SDS011;10743;52.160;20.910;2024-01-15T05:37:44;17.43;;;7.53;;
21170;SDS011;10743;52.160;20.910;2024-01-15T05:40:12;25.77;;;7.97;;
21170;SDS011;10743;52.160;20.910;2024-01-15T05:42:39;14.37;;;6.97;;
21170;SDS011;10743;52.160;20.910;2024-01-15T05:45:08;20.37;;;7.43;;
21170;SDS011;10743;52.160;20.910;2024-01-15T05:47:35;20.83;;;7.13;;
21170;SDS011;10743;52.160;20.910;2024-01-15T05:50:02;18.07;;;7.90;;
21170;SDS011;10743;52.160;20.910;2024-01-15T05:52:30;13.73;;;6.57;;
21170;SDS011;10743;52.160;20.910;2024-01-15T05:54:57;13.87;;;6.67;;
21170;SDS011;10743;52.160;20.910;2024-01-15T05:57:24;19.93;;;7.20;;
21170;SDS011;10743;52.160;20.910;2024-01-15T05:59:51;15.53;;;6.63;;
21170;SDS011;10743;52.160;20.910;2024-01-15T06:02:19;17.93;;;6.43;;
21170;SDS011;10743;52.160;20.910;2024-01-15T06:04:46;17.17;;;6.90;;
21170;SDS011;10743;52.160;20.910;2024-01-15T06:07:13;17.67;;;7.07;;
21170;SDS011;10743;52.160;20.910;2024-01-15T06:09:40;18.40;;;7.10;;
21170;SDS011;10743;52.160;20.910;2024-01-15T06:12:07;15.20;;;6.50;;
21170;SDS011;10743;52.160;20.910;2024-01-15T06:14:34;13.57;;;6.43;;
21170;SDS011;10743;52.160;20.910;2024-01-15T06:17:02;14.53;;;6.43;;
21170;SDS011;10743;52.160;20.910;2024-01-15T06:19:29;19.37;;;8.20;;
21170;SDS011;10743;52.160;20.910;2024-01-15T06:21:56;13.60;;;6.37;;
21170;SDS011;10743;52.160;20.910;2024-01-15T06:24:23;14.87;;;6.67;;
21170;SDS011;10743;52.160;20.910;2024-01-15T06:26:51;15.27;;;6.67;;
21170;SDS011;10743;52.160;20.910;2024-01-15T06:29:18;15.37;;;7.17;;
21170;SDS011;10743;52.160;20.910;2024-01-15T06:31:45;14.50;;;7.33;;
21170;SDS011;10743;52.160;20.910;2024-01-15T06:34:12;14.77;;;7.13;;
21170;SDS011;10743;52.160;20.910;2024-01-15T06:36:39;19.93;;;7.77;;
21170;SDS011;10743;52.160;20.910;2024-01-15T06:39:06;13.50;;;7.20;;
21170;SDS011;10743;52.160;20.910;2024-01-15T06:41:34;15.70;;;6.60;;
21170;SDS011;10743;52.160;20.910;2024-01-15T06:44:01;12.53;;;7.10;;
21170;SDS011;10743;52.160;20.910;2024-01-15T06:46:28;16.73;;;7.17;;
21170;SDS011;10743;52.160;20.910;2024-01-15T06:48:55;15.00;;;7.30;;
21170;SDS011;10743;52.160;20.910;2024-01-15T06:51:22;17.50;;;8.13;;
21170;SDS011;10743;52.160;20.910;2024-01-15T06:53:49;17.27;;;8.17;;
21170;SDS011;10743;52.160;20.910;2024-01-15T06:56:16;20.13;;;8.87;;
21170;SDS011;10743;52.160;20.910;2024-01-15T06:58:43;20.77;;;9.27;;
21170;SDS011;10743;52.160;20.910;2024-01-15T07:01:10;22.70;;;10.97;;
21170;SDS011;10743;52.160;20.910;2024-01-15T07:03:37;22.23;;;8.10;;
21170;SDS011;10743;52.160;20.910;2024-01-15T07:06:05;25.27;;;10.30;;
21170;SDS011;10743;52.160;20.910;2024-01-15T07:08:32;20.80;;;9.47;;
21170;SDS011;10743;52.160;20.910;2024-01-15T07:10:59;23.57;;;9.30;;
21170;SDS011;10743;52.160;20.910;2024-01-15T07:13:30;27.03;;;11.20;;
21170;SDS011;10743;52.160;20.910;2024-01-15T07:15:57;26.27;;;10.83;;
21170;SDS011;10743;52.160;20.910;2024-01-15T07:18:24;31.30;;;11.17;;
21170;SDS011;10743;52.160;20.910;2024-01-15T07:20:52;26.17;;;10.00;;
21170;SDS011;10743;52.160;20.910;2024-01-15T07:23:19;23.30;;;10.77;;
21170;SDS011;10743;52.160;20.910;2024-01-15T07:25:46;31.33;;;11.10;;
21170;SDS011;10743;52.160;20.910;2024-01-15T07:28:13;24.23;;;10.07;;
21170;SDS011;10743;52.160;20.910;2024-01-15T07:30:40;19.37;;;8.87;;
21170;SDS011;10743;52.160;20.910;2024-01-15T07:33:07;19.30;;;8.33;;
21170;SDS011;10743;52.160;20.910;2024-01-15T07:35:35;17.13;;;7.07;;
21170;SDS011;10743;52.160;20.910;2024-01-15T07:38:02;22.63;;;9.57;;
21170;SDS011;10743;52.160;20.910;2024-01-15T07:40:29;23.40;;;11.40;;
21170;SDS011;10743;52.160;20.910;2024-01-15T07:42:56;21.67;;;8.17;;
21170;SDS011;10743;52.160;20.910;2024-01-15T07:45:23;25.07;;;10.23;;
21170;SDS011;10743;52.160;20.910;2024-01-15T07:47:50;17.50;;;8.20;;
21170;SDS011;10743;52.160;20.910;2024-01-15T07:50:17;18.07;;;8.33;;
21170;SDS011;10743;52.160;20.910;2024-01-15T07:52:44;22.97;;;9.87;;
21170;SDS011;10743;52.160;20.910;2024-01-15T07:55:11;29.87;;;13.03;;
21170;SDS011;10743;52.160;20.910;2024-01-15T07:57:39;30.70;;;14.80;;
21170;SDS011;10743;52.160;20.910;2024-01-15T08:00:06;41.33;;;14.57;;
21170;SDS011;10743;52.160;20.910;2024-01-15T08:02:35;19.97;;;9.27;;
21170;SDS011;10743;52.160;20.910;2024-01-15T08:05:03;27.60;;;9.97;;
21170;SDS011;10743;52.160;20.910;2024-01-15T08:07:31;23.40;;;10.23;;
21170;SDS011;10743;52.160;20.910;2024-01-15T08:09:58;21.13;;;9.73;;
21170;SDS011;10743;52.160;20.910;2024-01-15T08:12:25;27.10;;;12.13;;
21170;SDS011;10743;52.160;20.910;2024-01-15T08:14:52;26.60;;;11.73;;
21170;SDS011;10743;52.160;20.910;2024-01-15T08:17:20;29.90;;;12.23;;
21170;SDS011;10743;52.160;20.910;2024-01-15T08:19:47;39.87;;;15.03;;
21170;SDS011;10743;52.160;20.910;2024-01-15T08:22:14;28.10;;;11.10;;
21170;SDS011;10743;52.160;20.910;2024-01-15T08:24:41;25.23;;;8.83;;
21170;SDS011;10743;52.160;20.910;2024-01-15T08:27:10;30.40;;;11.17;;
21170;SDS011;10743;52.160;20.910;2024-01-15T08:29:37;24.00;;;10.90;;
21170;SDS011;10743;52.160;20.910;2024-01-15T08:32:04;16.47;;;8.00;;
21170;SDS011;10743;52.160;20.910;2024-01-15T08:34:32;18.33;;;9.97;;
21170;SDS011;10743;52.160;20.910;2024-01-15T08:36:59;30.53;;;10.03;;
21170;SDS011;10743;52.160;20.910;2024-01-15T08:39:26;26.87;;;10.37;;
21170;SDS011;10743;52.160;20.910;2024-01-15T08:41:53;22.13;;;9.80;;
21170;SDS011;10743;52.160;20.910;2024-01-15T08:44:20;31.63;;;11.17;;
21170;SDS011;10743;52.160;20.910;2024-01-15T08:46:47;18.70;;;8.00;;
21170;SDS011;10743;52.160;20.910;2024-01-15T08:49:14;30.70;;;12.60;;
21170;SDS011;10743;52.160;20.910;2024-01-15T08:51:41;13.47;;;6.27;;
21170;SDS011;10743;52.160;20.910;2024-01-15T08:54:08;22.00;;;8.77;;
21170;SDS011;10743;52.160;20.910;2024-01-15T08:56:35;15.67;;;7.43;;
21170;SDS011;10743;52.160;20.910;2024-01-15T08:59:03;22.33;;;7.90;;
21170;SDS011;10743;52.160;20.910;2024-01-15T09:01:30;17.93;;;8.33;;
21170;SDS011;10743;52.160;20.910;2024-01-15T09:03:57;19.27;;;8.37;;
21170;SDS011;10743;52.160;20.910;2024-01-15T09:06:24;17.93;;;7.30;;
21170;SDS011;10743;52.160;20.910;2024-01-15T09:08:51;19.57;;;7.63;;
21170;SDS011;10743;52.160;20.910;2024-01-15T09:11:19;13.70;;;7.20;;
21170;SDS011;10743;52.160;20.910;2024-01-15T09:13:45;15.13;;;7.10;;
21170;SDS011;10743;52.160;20.910;2024-01-15T09:16:12;10.10;;;6.10;;
21170;SDS011;10743;52.160;20.910;2024-01-15T09:18:40;17.50;;;6.83;;
21170;SDS011;10743;52.160;20.910;2024-01-15T09:21:07;29.50;;;12.03;;
21170;SDS011;10743;52.160;20.910;2024-01-15T09:23:34;20.60;;;7.37;;
21170;SDS011;10743;52.160;20.910;2024-01-15T09:26:01;15.87;;;6.47;;
21170;SDS011;10743;52.160;20.910;2024-01-15T09:28:28;16.63;;;7.27;;
21170;SDS011;10743;52.160;20.910;2024-01-15T09:30:55;10.30;;;6.03;;
21170;SDS011;10743;52.160;20.910;2024-01-15T09:33:23;12.70;;;6.20;;
21170;SDS011;10743;52.160;20.910;2024-01-15T09:35:50;13.97;;;6.00;;
21170;SDS011;10743;52.160;20.910;2024-01-15T09:38:17;9.97;;;5.77;;
21170;SDS011;10743;52.160;20.910;2024-01-15T09:40:46;14.83;;;6.67;;
21170;SDS011;10743;52.160;20.910;2024-01-15T09:43:13;10.97;;;5.43;;
21170;SDS011;10743;52.160;20.910;2024-01-15T09:45:42;14.83;;;4.77;;
21170;SDS011;10743;52.160;20.910;2024-01-15T09:48:10;14.60;;;5.97;;
21170;SDS011;10743;52.160;20.910;2024-01-15T09:50:37;13.70;;;4.87;;
21170;SDS011;10743;52.160;20.910;2024-01-15T09:53:05;13.07;;;4.70;;
21170;SDS011;10743;52.160;20.910;2024-01-15T09:55:32;13.13;;;5.77;;
21170;SDS011;10743;52.160;20.910;2024-01-15T09:58:00;11.00;;;5.40;;
21170;SDS011;10743;52.160;20.910;2024-01-15T10:00:30;12.07;;;6.13;;
21170;SDS011;10743;52.160;20.910;2024-01-15T10:02:59;16.97;;;6.50;;
21170;SDS011;10743;52.160;20.910;2024-01-15T10:05:27;14.17;;;5.83;;
21170;SDS011;10743;52.160;20.910;2024-01-15T10:07:54;11.97;;;5.87;;
21170;SDS011;10743;52.160;20.910;2024-01-15T10:10:24;14.10;;;6.10;;
21170;SDS011;10743;52.160;20.910;2024-01-15T10:12:51;15.10;;;6.30;;
21170;SDS011;10743;52.160;20.910;2024-01-15T10:15:21;13.97;;;6.00;;
21170;SDS011;10743;52.160;20.910;2024-01-15T10:17:50;13.33;;;6.13;;
21170;SDS011;10743;52.160;20.910;2024-01-15T10:20:17;16.00;;;5.70;;
21170;SDS011;10743;52.160;20.910;2024-01-15T10:22:45;11.53;;;6.30;;
21170;SDS011;10743;52.160;20.910;2024-01-15T10:25:15;14.20;;;6.27;;
21170;SDS011;10743;52.160;20.910;2024-01-15T10:27:42;12.93;;;6.23;;
21170;SDS011;10743;52.160;20.910;2024-01-15T10:30:10;29.77;;;9.73;;
21170;SDS011;10743;52.160;20.910;2024-01-15T10:32:40;20.93;;;8.03;;
21170;SDS011;10743;52.160;20.910;2024-01-15T10:35:07;18.70;;;6.83;;
21170;SDS011;10743;52.160;20.910;2024-01-15T10:37:35;29.10;;;11.10;;
21170;SDS011;10743;52.160;20.910;2024-01-15T10:40:02;46.30;;;14.27;;
21170;SDS011;10743;52.160;20.910;2024-01-15T10:42:31;21.00;;;8.90;;
21170;SDS011;10743;52.160;20.910;2024-01-15T10:44:58;18.57;;;7.70;;
21170;SDS011;10743;52.160;20.910;2024-01-15T10:47:25;14.03;;;5.47;;
21170;SDS011;10743;52.160;20.910;2024-01-15T10:49:53;9.10;;;5.20;;
21170;SDS011;10743;52.160;20.910;2024-01-15T10:52:21;15.30;;;5.33;;
21170;SDS011;10743;52.160;20.910;2024-01-15T10:54:49;15.33;;;6.17;;
21170;SDS011;10743;52.160;20.910;2024-01-15T10:57:17;17.57;;;5.87;;
21170;SDS011;10743;52.160;20.910;2024-01-15T10:59:47;13.87;;;5.80;;
21170;SDS011;10743;52.160;20.910;2024-01-15T11:02:14;14.97;;;6.63;;
21170;SDS011;10743;52.160;20.910;2024-01-15T11:04:42;12.87;;;5.87;;
21170;SDS011;10743;52.160;20.910;2024-01-15T11:07:09;16.63;;;5.80;;
21170;SDS011;10743;52.160;20.910;2024-01-15T11:09:38;14.43;;;5.97;;
21170;SDS011;10743;52.160;20.910;2024-01-15T11:12:15;26.90;;;7.67;;
21170;SDS011;10743;52.160;20.910;2024-01-15T11:14:47;13.67;;;6.87;;
21170;SDS011;10743;52.160;20.910;2024-01-15T11:17:16;19.03;;;5.97;;
21170;SDS011;10743;52.160;20.910;2024-01-15T11:19:45;14.73;;;5.90;;
21170;SDS011;10743;52.160;20.910;2024-01-15T11:24:58;11.07;;;5.07;;
21170;SDS011;10743;52.160;20.910;2024-01-15T11:27:52;9.47;;;5.63;;
21170;SDS011;10743;52.160;20.910;2024-01-15T11:30:21;14.80;;;5.53;;
21170;SDS011;10743;52.160;20.910;2024-01-15T11:32:52;11.50;;;4.90;;
21170;SDS011;10743;52.160;20.910;2024-01-15T11:35:20;16.10;;;5.67;;
21170;SDS011;10743;52.160;20.910;2024-01-15T11:40:21;11.17;;;5.70;;
21170;SDS011;10743;52.160;20.910;2024-01-15T11:43:04;23.87;;;6.73;;
21170;SDS011;10743;52.160;20.910;2024-01-15T11:45:36;17.67;;;6.47;;
21170;SDS011;10743;52.160;20.910;2024-01-15T11:48:11;12.40;;;5.73;;
21170;SDS011;10743;52.160;20.910;2024-01-15T11:50:44;20.47;;;6.90;;
21170;SDS011;10743;52.160;20.910;2024-01-15T11:53:16;8.87;;;5.20;;
21170;SDS011;10743;52.160;20.910;2024-01-15T11:55:50;15.67;;;5.63;;
21170;SDS011;10743;52.160;20.910;2024-01-15T11:58:18;11.30;;;5.87;;
21170;SDS011;10743;52.160;20.910;2024-01-15T12:00:48;19.33;;;6.40;;
21170;SDS011;10743;52.160;20.910;2024-01-15T12:03:20;11.30;;;5.97;;
21170;SDS011;10743;52.160;20.910;2024-01-15T12:05:54;17.00;;;6.20;;
21170;SDS011;10743;52.160;20.910;2024-01-15T12:08:22;14.73;;;6.20;;
21170;SDS011;10743;52.160;20.910;2024-01-15T12:10:50;17.13;;;6.83;;
21170;SDS011;10743;52.160;20.910;2024-01-15T12:13:18;30.83;;;11.90;;
21170;SDS011;10743;52.160;20.910;2024-01-15T12:15:46;14.80;;;6.00;;
21170;SDS011;10743;52.160;20.910;2024-01-15T12:18:15;32.03;;;10.97;;
21170;SDS011;10743;52.160;20.910;2024-01-15T12:20:45;22.27;;;8.23;;
21170;SDS011;10743;52.160;20.910;2024-01-15T12:23:16;27.67;;;9.83;;
21170;SDS011;10743;52.160;20.910;2024-01-15T12:25:44;25.90;;;10.10;;
21170;SDS011;10743;52.160;20.910;2024-01-15T12:28:12;29.53;;;9.90;;
21170;SDS011;10743;52.160;20.910;2024-01-15T12:30:39;23.17;;;9.17;;
21170;SDS011;10743;52.160;20.910;2024-01-15T12:33:07;21.73;;;7.53;;
21170;SDS011;10743;52.160;20.910;2024-01-15T12:35:36;23.17;;;8.40;;
21170;SDS011;10743;52.160;20.910;2024-01-15T12:38:04;32.40;;;11.07;;
21170;SDS011;10743;52.160;20.910;2024-01-15T12:40:32;25.23;;;8.77;;
21170;SDS011;10743;52.160;20.910;2024-01-15T12:43:02;34.50;;;11.23;;
21170;SDS011;10743;52.160;20.910;2024-01-15T12:45:30;24.10;;;9.10;;
21170;SDS011;10743;52.160;20.910;2024-01-15T12:47:58;23.83;;;9.27;;
21170;SDS011;10743;52.160;20.910;2024-01-15T12:50:26;18.40;;;8.17;;
21170;SDS011;10743;52.160;20.910;2024-01-15T12:52:53;27.97;;;10.57;;
21170;SDS011;10743;52.160;20.910;2024-01-15T12:55:20;23.03;;;10.47;;
21170;SDS011;10743;52.160;20.910;2024-01-15T12:57:49;109.33;;;18.90;;
21170;SDS011;10743;52.160;20.910;2024-01-15T13:00:19;24.20;;;10.47;;
21170;SDS011;10743;52.160;20.910;2024-01-15T13:02:47;21.83;;;7.80;;
21170;SDS011;10743;52.160;20.910;2024-01-15T13:05:16;22.97;;;8.57;;
21170;SDS011;10743;52.160;20.910;2024-01-15T13:07:44;21.80;;;8.63;;
21170;SDS011;10743;52.160;20.910;2024-01-15T13:10:11;21.40;;;7.87;;
21170;SDS011;10743;52.160;20.910;2024-01-15T13:12:39;17.40;;;7.83;;
21170;SDS011;10743;52.160;20.910;2024-01-15T13:15:08;20.13;;;7.50;;
21170;SDS011;10743;52.160;20.910;2024-01-15T13:17:41;18.03;;;7.50;;
21170;SDS011;10743;52.160;20.910;2024-01-15T13:20:10;22.87;;;8.43;;
21170;SDS011;10743;52.160;20.910;2024-01-15T13:22:38;18.53;;;7.20;;
21170;SDS011;10743;52.160;20.910;2024-01-15T13:25:07;28.03;;;8.60;;
21170;SDS011;10743;52.160;20.910;2024-01-15T13:27:35;17.83;;;7.87;;
21170;SDS011;10743;52.160;20.910;2024-01-15T13:30:04;16.13;;;6.73;;
21170;SDS011;10743;52.160;20.910;2024-01-15T13:32:34;14.27;;;6.93;;
21170;SDS011;10743;52.160;20.910;2024-01-15T13:35:02;14.27;;;6.80;;
21170;SDS011;10743;52.160;20.910;2024-01-15T13:37:32;13.93;;;6.47;;
21170;SDS011;10743;52.160;20.910;2024-01-15T13:39:59;16.10;;;7.77;;
21170;SDS011;10743;52.160;20.910;2024-01-15T13:42:26;20.23;;;7.43;;
21170;SDS011;10743;52.160;20.910;2024-01-15T13:44:54;18.00;;;6.53;;
21170;SDS011;10743;52.160;20.910;2024-01-15T13:47:21;15.93;;;6.80;;
21170;SDS011;10743;52.160;20.910;2024-01-15T13:49:48;14.90;;;6.97;;
21170;SDS011;10743;52.160;20.910;2024-01-15T13:52:16;15.47;;;5.83;;
21170;SDS011;10743;52.160;20.910;2024-01-15T13:54:44;17.33;;;6.97;;
21170;SDS011;10743;52.160;20.910;2024-01-15T13:57:16;23.17;;;8.83;;
21170;SDS011;10743;52.160;20.910;2024-01-15T13:59:45;24.83;;;7.20;;
21170;SDS011;10743;52.160;20.910;2024-01-15T14:02:12;19.37;;;8.53;;
21170;SDS011;10743;52.160;20.910;2024-01-15T14:04:46;15.43;;;6.43;;
21170;SDS011;10743;52.160;20.910;2024-01-15T14:07:15;18.33;;;7.33;;
21170;SDS011;10743;52.160;20.910;2024-01-15T14:09:42;14.40;;;5.97;;
21170;SDS011;10743;52.160;20.910;2024-01-15T14:12:10;13.97;;;6.30;;
21170;SDS011;10743;52.160;20.910;2024-01-15T14:14:38;23.07;;;7.77;;
21170;SDS011;10743;52.160;20.910;2024-01-15T14:17:06;15.03;;;6.43;;
21170;SDS011;10743;52.160;20.910;2024-01-15T14:19:33;18.90;;;7.53;;
21170;SDS011;10743;52.160;20.910;2024-01-15T14:22:01;15.80;;;7.23;;
21170;SDS011;10743;52.160;20.910;2024-01-15T14:24:28;18.37;;;6.63;;
21170;SDS011;10743;52.160;20.910;2024-01-15T14:26:55;15.80;;;6.77;;
21170;SDS011;10743;52.160;20.910;2024-01-15T14:29:23;14.83;;;6.33;;